Terminal Aerodrome Forecast
Issued by NWS

Home | Current Version | Previous Version | Text Only | Print | Product List | Glossary On
Versions: 1 2 3 4 5 6 7 8 9 10 11 12 13 14 15 16 17 18 19 20 21 22 23 24 25 26
737
FTUS46 KPQR 212332
TAFONP
TAF
KONP 212332Z 2200/2224 31006KT P6SM FEW050 BKN150 BKN200
     FM220300 22008KT P6SM SCT045 BKN120 OVC200
     FM220500 19010KT 4SM -SNRA SCT015 OVC030
     FM220700 17013G20KT 1SM -SNRA BKN008 OVC015
     FM221100 33012KT 5SM -SHSNRA SCT015 BKN025
     FM221600 06012KT P6SM FEW035 SCT250
     FM222200 35008KT P6SM FEW250=

USA.gov is the U.S. government's official web portal to all federal, state and local government web resources and services.